KAUM/AUM METAR and TAF weather

Enter ICAO airport designator
Station Type Date Time Source
KAUM METAR 2018/04/21 11:35 UTC NOAA

KAUM 211135Z AUTO 07005KT 10SM BKN065 OVC075 02/M02 A3040 RMK AO2


Station Type Date Time Source
KAUM Decoded METAR 2018/04/21 11:35 UTC NOAA

Austin Municipal, MN, United States (KAUM) 43-40N 092-56W
Apr 21, 2018 - 07:35 AM EDT / 2018.04.21 1135 UTC
Wind: from the ENE (070 degrees) at 6 MPH (5 KT):0
Visibility: 10 mile(s):0
Sky conditions: overcast
Temperature: 35 F (2 C)
Windchill: 30 F (-1 C):1
Dew Point: 28 F (-2 C)
Relative Humidity: 74%
Pressure (altimeter): 30.4 in. Hg (1029 hPa)
ob: KAUM 211135Z AUTO 07005KT 10SM BKN065 OVC075 02/M02 A3040 RMK AO2
cycle: 11

Station Type Date Time Source
KAUM TAF UTC NOAA

Error!


Example: see airport list